Time;durP1;ratioP1;P1;durP2;ratioP2;P2;SDS_P1;SDS_P2;PMS_P1;PMS_P2;Temp;Humidity;BMP_temperature;BMP_pressure;BME280_temperature;BME280_humidity;BME280_pressure;Samples;Min_cycle;Max_cycle;Signal;HPM_P1;HPM_P2
2021/06/27 00:00:35;;;;;;;0.43;0.43;;;;;;;17.72;100.00;97354.03;5015474;28;20021;-75
2021/06/27 00:03:01;;;;;;;1.27;0.77;;;;;;;17.74;100.00;97352.91;5032353;28;20032;-76
2021/06/27 00:05:28;;;;;;;0.73;0.68;;;;;;;17.81;100.00;97359.44;5015409;28;20033;-75
2021/06/27 00:07:54;;;;;;;0.40;0.40;;;;;;;17.88;100.00;97357.00;5031707;28;20057;-76
2021/06/27 00:10:33;;;;;;;0.35;0.20;;;;;;;17.92;100.00;97355.72;5015223;28;20028;-75
2021/06/27 00:12:59;;;;;;;0.63;0.30;;;;;;;17.96;100.00;97359.84;5015505;28;20408;-75
2021/06/27 00:15:29;;;;;;;0.77;0.77;;;;;;;17.98;100.00;97360.56;5015243;28;20034;-75
2021/06/27 00:17:55;;;;;;;0.82;0.68;;;;;;;18.01;100.00;97346.72;5033090;28;20017;-75
2021/06/27 00:20:25;;;;;;;0.52;0.52;;;;;;;18.02;100.00;97345.75;5031508;28;20124;-75
2021/06/27 00:22:51;;;;;;;1.45;0.43;;;;;;;18.04;100.00;97348.28;5015317;28;20072;-75
2021/06/27 00:25:18;;;;;;;1.88;0.77;;;;;;;18.07;100.00;97346.13;5015078;28;20103;-75
2021/06/27 00:27:46;;;;;;;30.45;1.75;;;;;;;18.09;100.00;97343.31;5015275;28;20064;-75
2021/06/27 00:30:12;;;;;;;1.35;0.77;;;;;;;18.13;100.00;97336.56;5014985;28;20032;-76
2021/06/27 00:32:38;;;;;;;0.45;0.30;;;;;;;18.13;100.00;97329.31;5031663;28;20032;-75
2021/06/27 00:35:08;;;;;;;1.13;0.70;;;;;;;18.12;100.00;97329.47;5031465;28;20022;-75
2021/06/27 00:37:34;;;;;;;0.30;0.30;;;;;;;18.08;100.00;97344.28;5031410;28;20135;-76
2021/06/27 00:40:00;;;;;;;1.77;1.23;;;;;;;18.06;100.00;97333.59;5031422;28;20053;-75
2021/06/27 00:42:26;;;;;;;1.40;0.47;;;;;;;17.99;100.00;97332.50;5031319;28;20061;-75
2021/06/27 00:44:51;;;;;;;1.05;0.57;;;;;;;17.92;100.00;97339.47;5031301;28;20484;-75
2021/06/27 00:47:31;;;;;;;0.50;0.47;;;;;;;17.88;100.00;97338.91;5014484;28;20452;-76
2021/06/27 00:49:57;;;;;;;0.60;0.60;;;;;;;17.82;100.00;97338.63;5031289;28;20068;-75
2021/06/27 00:52:23;;;;;;;1.17;0.75;;;;;;;17.80;100.00;97335.22;5031026;28;20029;-75
2021/06/27 00:54:49;;;;;;;1.63;0.93;;;;;;;17.71;100.00;97320.72;5014660;28;20022;-74
2021/06/27 00:57:14;;;;;;;8.32;1.48;;;;;;;17.70;100.00;97328.97;5031214;28;20058;-74
2021/06/27 00:59:40;;;;;;;2.47;0.50;;;;;;;17.73;100.00;97336.81;5032066;28;20469;-74
2021/06/27 01:02:06;;;;;;;0.40;0.40;;;;;;;17.61;100.00;97327.13;5014547;28;20108;-75
2021/06/27 01:04:31;;;;;;;0.30;0.30;;;;;;;17.63;100.00;97331.41;5014279;28;20589;-74
2021/06/27 01:06:57;;;;;;;1.85;0.93;;;;;;;17.63;100.00;97336.81;5014438;28;20021;-75
2021/06/27 01:09:23;;;;;;;0.32;0.28;;;;;;;17.57;100.00;97328.41;5014135;28;20025;-75
2021/06/27 01:11:48;;;;;;;4.78;1.35;;;;;;;17.56;100.00;97334.84;5032217;28;20508;-74
2021/06/27 01:14:14;;;;;;;0.93;0.85;;;;;;;17.56;100.00;97332.13;5014519;28;20468;-75
2021/06/27 01:16:41;;;;;;;0.50;0.50;;;;;;;17.49;100.00;97326.41;5014003;28;20045;-75
2021/06/27 01:19:07;;;;;;;0.73;0.40;;;;;;;17.51;100.00;97323.53;5030914;28;20065;-74
2021/06/27 01:21:35;;;;;;;0.57;0.25;;;;;;;17.54;100.00;97334.94;5030896;28;20033;-74
2021/06/27 01:24:05;;;;;;;0.13;0.13;;;;;;;17.47;100.00;97333.81;5030801;28;20017;-74
2021/06/27 01:26:30;;;;;;;0.57;0.47;;;;;;;17.44;100.00;97347.63;5013898;28;20080;-74
2021/06/27 01:28:58;;;;;;;2.33;1.38;;;;;;;17.36;100.00;97347.47;5014092;28;20053;-75
2021/06/27 01:31:25;;;;;;;1.25;0.75;;;;;;;17.31;100.00;97333.53;5014051;28;20037;-75
2021/06/27 01:33:52;;;;;;;1.65;0.35;;;;;;;17.38;100.00;97348.16;5014032;28;20025;-74
2021/06/27 01:36:17;;;;;;;0.35;0.35;;;;;;;17.27;100.00;97340.19;5031644;28;20033;-74
2021/06/27 01:38:43;;;;;;;0.73;0.73;;;;;;;17.24;100.00;97341.34;5013556;28;20179;-74
2021/06/27 01:41:08;;;;;;;0.10;0.10;;;;;;;17.22;100.00;97334.38;5030446;28;20021;-75
2021/06/27 01:43:34;;;;;;;7.05;1.80;;;;;;;17.18;100.00;97331.09;5013588;28;20037;-76
2021/06/27 01:46:01;;;;;;;1.05;0.85;;;;;;;17.19;100.00;97332.81;5013599;28;20207;-73
2021/06/27 01:48:28;;;;;;;1.45;0.75;;;;;;;17.19;100.00;97331.94;5030297;28;20033;-74
2021/06/27 01:50:56;;;;;;;0.85;0.50;;;;;;;17.18;100.00;97328.38;5030312;28;20025;-74
2021/06/27 01:53:26;;;;;;;0.85;0.73;;;;;;;17.15;100.00;97320.56;5013712;28;20037;-75
2021/06/27 01:56:04;;;;;;;0.35;0.35;;;;;;;17.12;100.00;97314.59;5013562;28;20025;-75
2021/06/27 01:58:34;;;;;;;1.98;0.55;;;;;;;17.02;100.00;97309.16;5029958;28;20022;-74
2021/06/27 02:01:00;;;;;;;0.22;0.22;;;;;;;17.00;100.00;97316.56;5030121;28;20060;-74
2021/06/27 02:03:25;;;;;;;0.28;0.28;;;;;;;16.95;100.00;97315.28;5013592;28;20049;-74
2021/06/27 02:05:51;;;;;;;0.30;0.30;;;;;;;16.98;100.00;97313.13;5005398;28;20072;-74
2021/06/27 02:08:16;;;;;;;0.70;0.40;;;;;;;17.05;100.00;97314.28;5013514;28;20107;-74
2021/06/27 02:10:42;;;;;;;0.20;0.13;;;;;;;17.08;100.00;97313.13;5029645;28;20112;-74
2021/06/27 02:13:08;;;;;;;0.32;0.32;;;;;;;17.07;100.00;97324.97;5013590;28;20139;-74
2021/06/27 02:15:33;;;;;;;0.52;0.52;;;;;;;17.05;100.00;97316.13;5013413;28;20029;-74
2021/06/27 02:18:26;;;;;;;0.82;0.57;;;;;;;17.13;100.00;97335.22;5013431;28;20025;-74
2021/06/27 02:20:53;;;;;;;1.25;0.63;;;;;;;17.04;100.00;97320.66;5029628;28;20500;-74
2021/06/27 02:23:19;;;;;;;3.83;1.35;;;;;;;17.09;100.00;97339.19;5029725;28;20399;-75
2021/06/27 02:25:45;;;;;;;1.45;0.60;;;;;;;17.13;100.00;97340.63;5013210;28;20029;-75
2021/06/27 02:28:11;;;;;;;0.43;0.43;;;;;;;17.10;100.00;97335.50;5013347;28;20083;-75
2021/06/27 02:30:36;;;;;;;0.43;0.38;;;;;;;17.10;100.00;97338.19;5029588;28;20026;-75
2021/06/27 02:33:03;;;;;;;0.30;0.30;;;;;;;17.05;100.00;97332.34;5033419;28;20091;-74
2021/06/27 02:35:28;;;;;;;0.20;0.20;;;;;;;17.04;100.00;97331.47;5017323;28;20484;-74
2021/06/27 02:37:54;;;;;;;0.75;0.40;;;;;;;17.06;100.00;97342.16;5016830;28;20117;-74
2021/06/27 02:40:21;;;;;;;0.82;0.82;;;;;;;17.03;100.00;97342.44;5017126;28;20611;-74
2021/06/27 02:42:46;;;;;;;0.28;0.28;;;;;;;16.99;100.00;97343.72;5033601;28;20508;-74
2021/06/27 02:45:12;;;;;;;0.45;0.45;;;;;;;17.02;100.00;97346.13;5033550;28;20051;-74
2021/06/27 02:47:38;;;;;;;0.28;0.28;;;;;;;17.05;100.00;97346.72;5016819;28;20067;-74
2021/06/27 02:50:10;;;;;;;0.30;0.30;;;;;;;16.95;100.00;97342.31;5017034;28;20100;-75
2021/06/27 02:52:36;;;;;;;3.35;0.88;;;;;;;16.95;100.00;97353.94;5016809;28;20087;-74
2021/06/27 02:55:02;;;;;;;0.22;0.20;;;;;;;16.98;100.00;97369.06;5016742;28;20021;-75
2021/06/27 02:57:28;;;;;;;0.80;0.77;;;;;;;16.98;100.00;97358.25;5016878;28;20041;-74
2021/06/27 02:59:53;;;;;;;0.65;0.65;;;;;;;17.00;100.00;97362.50;5033134;28;20029;-75
2021/06/27 03:02:19;;;;;;;1.48;0.75;;;;;;;17.05;100.00;97367.47;5033391;28;20039;-74
2021/06/27 03:04:44;;;;;;;2.28;0.95;;;;;;;17.08;100.00;97370.75;5016565;28;20076;-75
2021/06/27 03:07:10;;;;;;;0.38;0.38;;;;;;;17.02;100.00;97365.06;5034383;28;20025;-74
2021/06/27 03:09:35;;;;;;;0.55;0.50;;;;;;;17.04;100.00;97376.59;5016755;28;20033;-74
2021/06/27 03:12:01;;;;;;;1.00;0.38;;;;;;;17.06;100.00;97372.75;5016431;28;20037;-75
2021/06/27 03:14:27;;;;;;;1.27;0.85;;;;;;;17.14;100.00;97385.56;5016732;28;20061;-75
2021/06/27 03:16:52;;;;;;;5.82;2.20;;;;;;;17.06;100.00;97383.56;5016414;28;20404;-74
2021/06/27 03:19:18;;;;;;;0.28;0.28;;;;;;;17.11;100.00;97380.44;5016297;28;20445;-75
2021/06/27 03:21:43;;;;;;;2.72;0.93;;;;;;;17.24;100.00;97397.25;5032763;28;20102;-75
2021/06/27 03:24:09;;;;;;;2.30;1.30;;;;;;;17.26;100.00;97400.66;5016384;28;20029;-75
2021/06/27 03:26:35;;;;;;;1.30;1.20;;;;;;;17.25;100.00;97388.16;5016285;28;20094;-76
2021/06/27 03:29:00;;;;;;;2.80;1.55;;;;;;;17.24;100.00;97391.84;5016011;28;20113;-76
2021/06/27 03:31:26;;;;;;;4.70;1.67;;;;;;;17.29;100.00;97400.38;5016296;28;20172;-76
2021/06/27 03:33:52;;;;;;;1.58;1.15;;;;;;;17.25;100.00;97394.44;5015884;28;20029;-76
2021/06/27 03:36:17;;;;;;;1.77;1.15;;;;;;;17.22;100.00;97394.72;5032702;28;20018;-76
2021/06/27 03:41:43;;;;;;;0.68;0.52;;;;;;;17.18;100.00;97387.84;5019934;28;20041;-76
2021/06/27 03:44:09;;;;;;;0.30;0.30;;;;;;;17.25;100.00;97388.16;5015825;28;20492;-76
2021/06/27 03:46:35;;;;;;;0.47;0.30;;;;;;;17.30;100.00;97388.59;5015675;28;20053;-75
2021/06/27 03:49:00;;;;;;;3.53;0.85;;;;;;;17.37;100.00;97386.19;5032176;28;20026;-74
2021/06/27 03:51:26;;;;;;;1.05;0.93;;;;;;;17.47;100.00;97393.31;5015805;28;20473;-75
2021/06/27 03:53:52;;;;;;;0.30;0.30;;;;;;;17.53;100.00;97398.16;5015514;28;20135;-75
2021/06/27 03:56:18;;;;;;;0.90;0.75;;;;;;;17.63;100.00;97404.44;5015924;28;20104;-76
2021/06/27 03:58:45;;;;;;;0.30;0.20;;;;;;;17.69;100.00;97406.56;5015606;28;20037;-75
2021/06/27 04:01:11;;;;;;;2.33;1.33;;;;;;;17.77;100.00;97395.03;5015636;28;20136;-87
2021/06/27 04:03:37;;;;;;;1.50;1.02;;;;;;;17.75;100.00;97397.88;5017847;28;20504;-88
2021/06/27 04:06:04;;;;;;;0.40;0.40;;;;;;;17.84;100.00;97404.31;5017952;28;20095;-89
2021/06/27 04:08:30;;;;;;;0.65;0.65;;;;;;;17.93;100.00;97408.88;5019051;28;20053;-89
2021/06/27 04:10:58;;;;;;;0.73;0.47;;;;;;;17.92;100.00;97398.16;5018630;28;20018;-90
2021/06/27 04:13:28;;;;;;;0.25;0.25;;;;;;;18.11;100.00;97398.16;5017426;28;20026;-78
2021/06/27 04:15:54;;;;;;;0.60;0.60;;;;;;;18.23;100.00;97407.81;5031663;28;20037;-77
2021/06/27 04:18:20;;;;;;;29.17;2.30;;;;;;;18.24;100.00;97404.13;5032089;28;20037;-77
2021/06/27 04:20:47;;;;;;;0.52;0.30;;;;;;;18.40;100.00;97404.34;5015457;28;20036;-76
2021/06/27 04:23:12;;;;;;;1.00;0.98;;;;;;;18.52;100.00;97414.03;5031766;28;20029;-77
2021/06/27 04:25:38;;;;;;;0.88;0.82;;;;;;;18.57;100.00;97400.91;5031840;28;20405;-76
2021/06/27 04:28:06;;;;;;;1.52;1.17;;;;;;;18.69;100.00;97404.28;5031497;28;20040;-81
2021/06/27 04:30:33;;;;;;;9.80;1.33;;;;;;;18.74;100.00;97396.53;5032925;28;20031;-78
2021/06/27 04:32:58;;;;;;;1.23;0.75;;;;;;;18.84;100.00;97406.34;5032626;28;20037;-80
2021/06/27 04:35:24;;;;;;;1.63;0.82;;;;;;;18.86;100.00;97406.19;5014905;28;20086;-77
2021/06/27 04:37:49;;;;;;;2.80;1.15;;;;;;;18.90;100.00;97404.91;5032742;28;20033;-78
2021/06/27 04:40:15;;;;;;;4.18;1.75;;;;;;;19.09;100.00;97406.66;5031393;28;20025;-77
2021/06/27 04:42:41;;;;;;;0.68;0.68;;;;;;;19.14;100.00;97404.34;5032758;28;20034;-77
2021/06/27 04:45:07;;;;;;;2.08;1.50;;;;;;;19.24;100.00;97406.00;5032112;28;20493;-77
2021/06/27 04:47:34;;;;;;;0.80;0.57;;;;;;;19.33;100.00;97398.81;5031468;28;20096;-81
2021/06/27 04:50:00;;;;;;;0.40;0.40;;;;;;;19.54;100.00;97414.81;5031213;28;20024;-80
2021/06/27 04:52:26;;;;;;;0.75;0.75;;;;;;;20.04;100.00;97405.13;5031308;28;20026;-79
2021/06/27 04:54:52;;;;;;;5.80;1.70;;;;;;;21.02;96.55;97410.19;5031210;28;20040;-77
2021/06/27 04:57:17;;;;;;;0.85;0.75;;;;;;;21.68;91.99;97421.19;5031202;28;20026;-78
2021/06/27 04:59:43;;;;;;;6.50;1.67;;;;;;;22.82;85.41;97424.81;5031043;28;20036;-80
2021/06/27 05:02:08;;;;;;;1.30;0.90;;;;;;;24.30;75.79;97414.66;5033962;28;20119;-89
2021/06/27 05:04:34;;;;;;;2.10;1.25;;;;;;;25.79;69.48;97417.97;5017560;28;20231;-78
2021/06/27 05:07:00;;;;;;;1.00;0.90;;;;;;;27.06;62.52;97430.81;5031740;28;20456;-86
2021/06/27 05:09:25;;;;;;;0.55;0.47;;;;;;;28.18;57.84;97443.19;5014835;28;20022;-81
2021/06/27 05:11:51;;;;;;;1.08;0.75;;;;;;;29.11;54.35;97447.72;5015832;28;20144;-81
2021/06/27 05:14:16;;;;;;;2.13;1.40;;;;;;;28.94;54.22;97440.97;5027540;28;20071;-82
2021/06/27 05:16:42;;;;;;;1.42;1.10;;;;;;;30.02;50.82;97452.16;5029767;28;20052;-80
2021/06/27 05:19:08;;;;;;;0.20;0.20;;;;;;;30.60;48.79;97458.47;5011835;28;20112;-80
2021/06/27 05:21:33;;;;;;;0.65;0.57;;;;;;;30.71;47.45;97461.53;5030009;28;20030;-79
2021/06/27 05:23:59;;;;;;;8.38;1.45;;;;;;;31.01;46.17;97457.91;5029910;28;20025;-79
2021/06/27 05:26:24;;;;;;;2.17;0.80;;;;;;;31.29;45.05;97465.75;5031931;28;20030;-79
2021/06/27 05:28:51;;;;;;;13.05;1.88;;;;;;;32.15;44.00;97468.44;5030456;28;20123;-79
2021/06/27 05:31:16;;;;;;;0.63;0.63;;;;;;;32.46;42.34;97468.22;5013703;28;20095;-78
2021/06/27 05:33:42;;;;;;;0.88;0.60;;;;;;;32.77;41.88;97467.13;5013935;28;20419;-78
2021/06/27 05:36:07;;;;;;;0.52;0.52;;;;;;;33.13;40.90;97468.94;5030279;28;20556;-78
2021/06/27 05:38:33;;;;;;;1.63;1.35;;;;;;;33.06;41.27;97459.84;5031871;28;20515;-79
2021/06/27 05:40:59;;;;;;;0.82;0.77;;;;;;;33.60;39.91;97462.31;5031682;28;20037;-79
2021/06/27 05:43:24;;;;;;;1.02;0.93;;;;;;;33.36;40.57;97465.31;5031467;28;20108;-79
2021/06/27 05:45:50;;;;;;;0.90;0.55;;;;;;;32.40;41.70;97462.75;5030120;28;20041;-79
2021/06/27 05:48:15;;;;;;;1.55;0.90;;;;;;;33.42;39.84;97464.34;5030227;28;20038;-79
2021/06/27 05:50:41;;;;;;;2.15;1.17;;;;;;;34.37;38.46;97467.56;5031605;28;20445;-79
2021/06/27 05:53:07;;;;;;;2.05;1.17;;;;;;;34.49;37.26;97471.16;5013563;28;20049;-78
2021/06/27 05:55:32;;;;;;;0.55;0.52;;;;;;;34.20;37.08;97464.75;5030187;28;20021;-79
2021/06/27 05:57:58;;;;;;;0.82;0.60;;;;;;;34.68;37.03;97476.31;5013429;28;20032;-79
2021/06/27 06:00:23;;;;;;;0.52;0.45;;;;;;;35.85;35.45;97470.75;5030992;28;20463;-80
2021/06/27 06:02:49;;;;;;;2.80;1.63;;;;;;;35.21;36.57;97469.47;5031141;28;20026;-79
2021/06/27 06:05:15;;;;;;;0.70;0.70;;;;;;;35.29;36.36;97486.56;5029880;28;20021;-79
2021/06/27 06:07:40;;;;;;;0.57;0.57;;;;;;;35.32;36.35;97477.72;5029743;28;20025;-79
2021/06/27 06:10:06;;;;;;;0.52;0.52;;;;;;;35.43;35.97;97475.97;5029850;28;20017;-78
2021/06/27 06:12:32;;;;;;;0.73;0.73;;;;;;;35.93;35.16;97478.69;5029863;28;20025;-80
2021/06/27 06:14:57;;;;;;;1.08;0.70;;;;;;;36.25;35.06;97481.63;5031228;28;20029;-80
2021/06/27 06:17:23;;;;;;;14.95;4.28;;;;;;;35.59;35.96;97486.28;5029451;28;20029;-80
2021/06/27 06:19:52;;;;;;;17.77;6.85;;;;;;;36.69;35.18;97493.59;5013234;28;20026;-80
2021/06/27 06:22:20;;;;;;;15.25;4.93;;;;;;;37.42;34.04;97490.97;5029765;28;20554;-80
2021/06/27 06:24:46;;;;;;;22.13;4.57;;;;;;;38.49;33.06;97492.50;5030022;28;20028;-80
2021/06/27 06:27:12;;;;;;;17.08;4.70;;;;;;;37.83;33.04;97486.53;5029536;28;20026;-80
2021/06/27 06:29:37;;;;;;;9.77;4.10;;;;;;;37.25;33.35;97492.22;5013317;28;20026;-80
2021/06/27 06:32:03;;;;;;;12.77;3.83;;;;;;;37.14;33.67;97484.84;5029833;28;20086;-80
2021/06/27 06:34:29;;;;;;;13.25;4.57;;;;;;;36.90;34.28;97487.13;5029701;28;20056;-80
2021/06/27 06:36:54;;;;;;;12.27;4.00;;;;;;;37.59;33.28;97490.00;5030040;28;20026;-81
2021/06/27 06:39:20;;;;;;;12.25;4.78;;;;;;;37.36;33.19;97482.81;5030702;28;20033;-81
2021/06/27 06:41:46;;;;;;;16.25;5.68;;;;;;;36.55;33.61;97476.44;5029714;28;20025;-81
2021/06/27 06:44:11;;;;;;;10.93;4.97;;;;;;;36.48;34.16;97480.50;5029528;28;20029;-80
2021/06/27 06:46:37;;;;;;;17.60;5.82;;;;;;;35.81;35.48;97470.41;5013089;28;20056;-82
2021/06/27 06:49:02;;;;;;;17.85;5.55;;;;;;;36.69;34.19;97477.72;5029581;28;20031;-82
2021/06/27 06:51:28;;;;;;;22.00;5.97;;;;;;;37.68;32.73;97471.63;5029396;28;20052;-82
2021/06/27 06:53:54;;;;;;;20.95;5.53;;;;;;;37.13;33.05;97485.97;5030798;28;20389;-82
2021/06/27 06:56:20;;;;;;;17.10;4.80;;;;;;;38.09;32.23;97481.09;5012878;28;20029;-82
2021/06/27 06:58:46;;;;;;;11.18;3.75;;;;;;;37.50;32.25;97478.50;5029824;28;20095;-82
2021/06/27 07:01:11;;;;;;;14.48;4.65;;;;;;;37.11;33.99;97469.50;5029543;28;20120;-82
2021/06/27 07:03:37;;;;;;;22.88;7.28;;;;;;;38.02;33.88;97480.53;5029661;28;20485;-82
2021/06/27 07:06:03;;;;;;;19.38;7.65;;;;;;;39.13;31.58;97470.56;5012890;28;20029;-81
2021/06/27 07:08:29;;;;;;;21.40;7.65;;;;;;;40.37;29.90;97478.25;5029441;28;20026;-81
2021/06/27 07:10:55;;;;;;;50.13;9.90;;;;;;;40.56;30.08;97484.91;5029318;28;20459;-82
2021/06/27 07:13:21;;;;;;;19.08;9.48;;;;;;;39.93;29.98;97478.09;5030505;28;20108;-82
2021/06/27 07:15:47;;;;;;;28.95;10.50;;;;;;;37.82;33.20;97481.22;5029533;28;20049;-81
2021/06/27 07:18:12;;;;;;;23.20;9.18;;;;;;;38.19;32.99;97482.00;5029934;28;20056;-80
2021/06/27 07:20:38;;;;;;;21.98;8.40;;;;;;;38.80;32.15;97480.31;5032850;28;20057;-83
2021/06/27 07:23:04;;;;;;;26.15;7.15;;;;;;;38.98;31.96;97476.13;5016475;28;20029;-83
2021/06/27 07:25:29;;;;;;;19.52;7.13;;;;;;;38.97;33.00;97483.72;5032808;28;20413;-83
2021/06/27 07:27:55;;;;;;;24.63;9.63;;;;;;;39.74;32.31;97482.63;5032833;28;20025;-83
2021/06/27 07:30:21;;;;;;;19.90;7.93;;;;;;;40.01;31.04;97482.28;5032787;28;20029;-82
2021/06/27 07:32:47;;;;;;;11.13;5.55;;;;;;;40.45;30.29;97486.06;5016190;28;20037;-83
2021/06/27 07:35:13;;;;;;;17.30;6.13;;;;;;;39.36;32.91;97497.19;5032601;28;20451;-83
2021/06/27 07:37:38;;;;;;;15.15;6.07;;;;;;;40.25;32.09;97488.09;5016067;28;20021;-84
2021/06/27 07:40:05;;;;;;;13.52;5.05;;;;;;;40.15;30.09;97469.34;5016091;28;20125;-82
2021/06/27 07:42:30;;;;;;;16.90;5.90;;;;;;;40.26;30.21;97485.03;5033701;28;20048;-82
2021/06/27 07:44:56;;;;;;;20.42;5.40;;;;;;;41.22;29.87;97498.56;5016033;28;20021;-82
2021/06/27 07:47:22;;;;;;;15.23;5.35;;;;;;;40.29;30.49;97484.47;5032422;28;20025;-81
2021/06/27 07:49:47;;;;;;;13.85;4.53;;;;;;;40.91;30.42;97491.47;5032391;28;20491;-82
2021/06/27 07:52:13;;;;;;;11.85;4.13;;;;;;;40.99;31.05;97499.28;5033397;28;20029;-82
2021/06/27 07:54:39;;;;;;;18.85;4.95;;;;;;;41.19;31.06;97492.69;5033442;28;20025;-82
2021/06/27 07:57:06;;;;;;;10.43;4.53;;;;;;;42.09;29.57;97491.88;5015940;28;20067;-82
2021/06/27 07:59:31;;;;;;;12.88;4.72;;;;;;;42.91;26.62;97477.66;5031957;28;20519;-82
2021/06/27 08:01:57;;;;;;;11.13;4.85;;;;;;;43.56;26.05;97482.25;5015695;28;20025;-83
2021/06/27 08:04:23;;;;;;;10.60;4.25;;;;;;;44.26;26.58;97487.78;5015366;28;20034;-82
2021/06/27 08:06:48;;;;;;;11.95;4.53;;;;;;;44.16;24.99;97486.00;5015937;28;20029;-82
2021/06/27 08:09:14;;;;;;;11.00;4.15;;;;;;;45.12;24.62;97488.75;5031877;28;20025;-83
2021/06/27 08:11:39;;;;;;;17.95;6.22;;;;;;;45.47;24.09;97492.75;5031547;28;20037;-82
2021/06/27 08:14:05;;;;;;;12.32;5.00;;;;;;;44.55;23.87;97481.81;5031959;28;20116;-82
2021/06/27 08:16:31;;;;;;;11.95;6.15;;;;;;;43.86;24.86;97478.09;5015242;28;20045;-82
2021/06/27 08:18:56;;;;;;;9.75;3.35;;;;;;;42.13;25.86;97464.84;5031768;28;20045;-82
2021/06/27 08:21:22;;;;;;;12.32;3.92;;;;;;;42.74;25.78;97464.09;5033037;28;20385;-82
2021/06/27 08:23:48;;;;;;;11.70;3.85;;;;;;;42.89;26.73;97477.09;5015033;28;20091;-82
2021/06/27 08:26:13;;;;;;;9.68;4.20;;;;;;;42.67;26.10;97469.28;5031640;28;20493;-82
2021/06/27 08:28:39;;;;;;;14.65;3.70;;;;;;;43.04;25.95;97465.66;5031567;28;20403;-82
2021/06/27 08:31:05;;;;;;;12.05;3.70;;;;;;;43.70;25.60;97466.25;5014947;28;20032;-83
2021/06/27 08:33:30;;;;;;;9.93;4.28;;;;;;;43.85;26.19;97465.13;5031409;28;20033;-82
2021/06/27 08:35:56;;;;;;;14.48;4.07;;;;;;;42.73;24.87;97451.19;5031597;28;20033;-82
2021/06/27 08:38:22;;;;;;;17.40;4.60;;;;;;;43.26;25.77;97462.19;5031726;28;20095;-82
2021/06/27 08:40:47;;;;;;;12.07;3.67;;;;;;;43.07;25.89;97457.41;5031173;28;20037;-83
2021/06/27 08:43:13;;;;;;;7.43;3.53;;;;;;;43.19;25.65;97460.59;5031764;28;20457;-82
2021/06/27 08:45:53;;;;;;;7.72;3.67;;;;;;;42.79;26.12;97457.56;5032392;28;20054;-82
2021/06/27 08:48:21;;;;;;;10.82;4.60;;;;;;;43.42;25.07;97453.22;5031467;28;20476;-82
2021/06/27 08:51:08;;;;;;;7.65;3.45;;;;;;;42.98;24.68;97441.53;5033134;28;20035;-83
2021/06/27 08:53:35;;;;;;;7.95;3.45;;;;;;;43.17;24.02;97439.50;5031386;28;20029;-82
2021/06/27 08:56:07;;;;;;;8.98;3.33;;;;;;;43.72;23.59;97435.75;5031646;28;20059;-82
2021/06/27 08:58:35;;;;;;;9.52;3.47;;;;;;;43.29;24.46;97447.50;5032439;28;20044;-83
2021/06/27 09:01:05;;;;;;;8.27;3.50;;;;;;;42.95;26.43;97444.91;5014491;28;20590;-82
2021/06/27 09:03:31;;;;;;;12.57;3.30;;;;;;;43.26;25.04;97442.47;5014569;28;20459;-82
2021/06/27 09:05:58;;;;;;;7.47;3.60;;;;;;;43.54;24.07;97442.28;5031188;28;20030;-83
2021/06/27 09:08:23;;;;;;;8.13;3.15;;;;;;;42.44;23.77;97425.09;5030840;28;20032;-83
2021/06/27 09:10:49;;;;;;;11.82;3.28;;;;;;;41.79;26.01;97430.38;5030763;28;20021;-83
2021/06/27 09:13:15;;;;;;;12.02;3.75;;;;;;;42.53;24.78;97428.91;5014394;28;20037;-83
2021/06/27 09:15:45;;;;;;;5.93;3.08;;;;;;;43.25;24.38;97436.03;5030676;28;20026;-83
2021/06/27 09:18:13;;;;;;;12.03;3.40;;;;;;;43.21;24.46;97446.22;5030607;28;20036;-83
2021/06/27 09:20:40;;;;;;;13.52;4.68;;;;;;;42.60;25.21;97435.03;5031796;28;20030;-83
2021/06/27 09:23:07;;;;;;;11.70;3.55;;;;;;;42.51;25.41;97437.66;5030930;28;20068;-84
2021/06/27 09:25:33;;;;;;;11.57;3.75;;;;;;;42.93;25.18;97439.59;5030508;28;20021;-84
2021/06/27 09:28:01;;;;;;;18.98;3.88;;;;;;;43.36;24.67;97431.03;5031641;28;20079;-84
2021/06/27 09:30:28;;;;;;;14.32;3.85;;;;;;;43.57;24.49;97432.38;5030619;28;20079;-85
2021/06/27 09:33:02;;;;;;;10.10;3.50;;;;;;;42.66;23.28;97416.94;5013898;28;20107;-82
2021/06/27 09:35:34;;;;;;;12.45;3.15;;;;;;;41.72;24.80;97429.84;5014207;28;20029;-82
2021/06/27 09:38:28;;;;;;;9.77;3.20;;;;;;;42.68;24.73;97414.63;5031676;28;20090;-82
2021/06/27 09:41:18;;;;;;;3.22;2.92;;;;;;;43.34;22.63;97422.06;5030831;28;20485;-82
2021/06/27 09:43:55;;;;;;;12.43;3.67;;;;;;;42.43;24.87;97418.63;5030127;28;20038;-82
2021/06/27 09:46:41;;;;;;;7.70;3.28;;;;;;;42.11;25.35;97426.91;5013792;28;20095;-83
2021/06/27 09:49:12;;;;;;;11.30;3.83;;;;;;;42.96;24.01;97427.72;5013935;28;20027;-83
2021/06/27 09:51:43;;;;;;;9.90;3.70;;;;;;;43.41;25.28;97428.16;5013753;28;20068;-82
2021/06/27 09:54:16;;;;;;;13.32;3.50;;;;;;;43.48;25.21;97428.59;5031869;28;20024;-82
2021/06/27 09:56:43;;;;;;;5.18;3.35;;;;;;;43.03;25.20;97433.00;5014058;28;20514;-83
2021/06/27 09:59:10;;;;;;;9.65;3.47;;;;;;;42.19;26.85;97419.78;5031425;28;20103;-83
2021/06/27 10:01:37;;;;;;;12.65;4.30;;;;;;;40.29;28.76;97427.53;5013767;28;20036;-82
2021/06/27 10:04:05;;;;;;;11.23;3.55;;;;;;;40.02;29.79;97423.09;5013537;28;20059;-83
2021/06/27 10:06:32;;;;;;;15.27;3.45;;;;;;;40.43;28.60;97422.94;5013640;28;20463;-82
2021/06/27 10:09:16;;;;;;;8.32;3.38;;;;;;;40.32;28.11;97413.75;5029895;28;20111;-83
2021/06/27 10:12:01;;;;;;;17.35;4.03;;;;;;;42.32;25.99;97421.88;5013806;28;20049;-82
2021/06/27 10:14:32;;;;;;;7.47;3.50;;;;;;;43.25;25.36;97423.91;5029911;28;20037;-82
2021/06/27 10:16:59;;;;;;;8.68;3.38;;;;;;;41.82;24.92;97400.81;5030049;28;20065;-82
2021/06/27 10:19:26;;;;;;;10.55;3.40;;;;;;;40.04;29.14;97420.03;5029937;28;20042;-82
2021/06/27 10:21:54;;;;;;;112.80;14.70;;;;;;;39.76;29.82;97421.53;5029789;28;20033;-82
2021/06/27 10:24:20;;;;;;;11.13;4.30;;;;;;;40.40;28.50;97417.91;5013520;28;20033;-82
2021/06/27 10:26:46;;;;;;;7.80;3.70;;;;;;;41.55;27.36;97413.47;5029772;28;20029;-82
2021/06/27 10:29:12;;;;;;;5.75;3.35;;;;;;;41.90;27.82;97406.63;5013267;28;20401;-82
2021/06/27 10:31:38;;;;;;;16.05;4.05;;;;;;;43.04;25.28;97407.31;5030007;28;20043;-82
2021/06/27 10:34:04;;;;;;;6.55;3.53;;;;;;;43.63;25.44;97409.41;5029585;28;22140;-83
2021/06/27 10:36:38;;;;;;;9.48;3.30;;;;;;;44.30;24.95;97408.97;5030125;28;20091;-83
2021/06/27 10:39:11;;;;;;;7.88;3.20;;;;;;;44.75;23.50;97403.16;5029494;28;20056;-83
2021/06/27 10:42:02;;;;;;;10.52;3.17;;;;;;;45.39;22.35;97403.88;5029815;28;20037;-83
2021/06/27 10:44:28;;;;;;;8.65;3.10;;;;;;;45.38;23.52;97416.31;5013746;28;20128;-82
2021/06/27 10:46:59;;;;;;;8.60;3.42;;;;;;;45.33;22.48;97402.34;5012784;28;20051;-82
2021/06/27 10:49:31;;;;;;;7.85;3.15;;;;;;;45.68;22.32;97404.25;5029937;28;20443;-82
2021/06/27 10:52:03;;;;;;;7.75;3.45;;;;;;;45.01;22.22;97403.38;5030846;28;20409;-82
2021/06/27 10:55:10;;;;;;;12.52;4.00;;;;;;;45.36;22.21;97395.19;5033643;28;20124;-84
2021/06/27 10:58:14;;;;;;;11.00;3.42;;;;;;;42.76;24.52;97397.06;5033354;28;20033;-83
2021/06/27 11:00:55;;;;;;;16.00;3.88;;;;;;;39.99;27.54;97394.84;5033893;28;20080;-82
2021/06/27 11:03:23;;;;;;;13.05;4.13;;;;;;;39.58;30.37;97412.84;5034631;28;20029;-82
2021/06/27 11:05:49;;;;;;;7.63;4.18;;;;;;;40.92;29.77;97406.94;5033139;28;20029;-82
2021/06/27 11:08:29;;;;;;;7.65;3.88;;;;;;;42.68;26.53;97400.56;5016934;28;20068;-82
2021/06/27 11:11:01;;;;;;;6.88;3.35;;;;;;;43.47;24.74;97395.94;5032922;28;20444;-80
2021/06/27 11:13:26;;;;;;;14.20;3.45;;;;;;;43.01;26.72;97390.22;5033209;28;20091;-81
2021/06/27 11:15:52;;;;;;;5.70;3.80;;;;;;;42.36;26.23;97384.41;5033047;28;20033;-79
2021/06/27 11:18:35;;;;;;;9.85;3.22;;;;;;;42.58;26.17;97393.09;5033171;28;20037;-83
2021/06/27 11:21:06;;;;;;;9.02;3.35;;;;;;;43.03;25.08;97388.78;5034264;28;20036;-82
2021/06/27 11:23:51;;;;;;;12.90;3.65;;;;;;;42.59;24.43;97380.72;5016630;28;20041;-82
2021/06/27 11:26:40;;;;;;;7.78;3.90;;;;;;;43.13;25.18;97382.13;5033190;28;20033;-80
2021/06/27 11:29:21;;;;;;;8.43;3.38;;;;;;;44.06;24.17;97378.97;5034387;28;20076;-81
2021/06/27 11:31:50;;;;;;;5.63;3.45;;;;;;;44.76;22.36;97375.75;5034012;28;20033;-83